createdAt,value
2023-03-23T15:59:55.781Z,93662.69
2023-03-23T16:02:25.330Z,93663.84
2023-03-23T16:04:52.438Z,93668.09
2023-03-23T16:07:22.427Z,93673.09
2023-03-23T16:09:49.072Z,93667.66
2023-03-23T16:12:15.724Z,93670.34
2023-03-23T16:14:42.411Z,93669.56
2023-03-23T16:17:15.870Z,93668.03
2023-03-23T16:19:42.533Z,93672.63
2023-03-23T16:22:09.916Z,93675.69
2023-03-23T16:24:36.663Z,93675.69
2023-03-23T16:27:03.283Z,93671.81
2023-03-23T16:32:01.440Z,93681.81
2023-03-23T16:34:30.155Z,93683.34
2023-03-23T16:36:56.822Z,93681.81
2023-03-23T16:39:23.751Z,93689.91
2023-03-23T16:41:50.651Z,93684.88
2023-03-23T16:44:17.360Z,93687.94
2023-03-23T16:46:44.345Z,93688.69
2023-03-23T16:49:11.128Z,93680.13
2023-03-23T16:51:37.930Z,93681.66
2023-03-23T16:54:04.699Z,93691.31
2023-03-23T16:56:31.389Z,93693.22
2023-03-23T16:58:58.095Z,93688.94
2023-03-23T17:01:24.750Z,93689.28
2023-03-23T17:03:51.525Z,93686.19
2023-03-23T17:06:18.213Z,93684.22
2023-03-23T17:08:44.866Z,93679.09
2023-03-23T17:11:11.577Z,93692.63
2023-03-23T17:13:38.478Z,93687.59
2023-03-23T17:16:05.760Z,93682.88
2023-03-23T17:18:32.500Z,93685.97
2023-03-23T17:20:59.179Z,93680.47
2023-03-23T17:23:26.177Z,93689.41
2023-03-23T17:25:53.913Z,93687.03
2023-03-23T17:28:21.123Z,93676.91
2023-03-23T17:30:48.516Z,93682.66
2023-03-23T17:33:15.414Z,93677.25
2023-03-23T17:35:42.698Z,93690.38
2023-03-23T17:38:09.763Z,93686.84
2023-03-23T17:40:36.697Z,93688.41
2023-03-23T17:43:04.085Z,93693.75
2023-03-23T17:45:30.974Z,93683.34
2023-03-23T17:47:57.666Z,93690.28
2023-03-23T17:50:24.416Z,93693.31
2023-03-23T17:52:51.135Z,93691.75
2023-03-23T17:55:17.776Z,93691.31
2023-03-23T17:57:44.976Z,93701.34
2023-03-23T18:00:13.296Z,93699.41
2023-03-23T18:02:40.031Z,93699.78
2023-03-23T18:05:09.386Z,93703.22
2023-03-23T18:07:37.022Z,93691.94
2023-03-23T18:10:11.829Z,93700.88
2023-03-23T18:12:40.149Z,93687.69
2023-03-23T18:15:07.387Z,93686.50
2023-03-23T18:17:34.125Z,93680.66
2023-03-23T18:20:01.420Z,93700.00
2023-03-23T18:22:28.065Z,93681.06
2023-03-23T18:24:55.399Z,93680.63
2023-03-23T18:27:22.015Z,93678.28
2023-03-23T18:29:48.666Z,93681.00
2023-03-23T18:32:17.119Z,93689.88
2023-03-23T18:34:43.906Z,93686.81
2023-03-23T18:37:10.869Z,93684.78
2023-03-23T18:39:38.539Z,93697.53
2023-03-23T18:42:06.294Z,93690.28
2023-03-23T18:44:33.313Z,93692.56
2023-03-23T18:47:00.597Z,93694.00
2023-03-23T18:49:29.026Z,93690.13
2023-03-23T18:51:56.109Z,93695.88
2023-03-23T18:54:22.755Z,93701.22
2023-03-23T18:56:49.494Z,93696.25
2023-03-23T18:59:16.311Z,93690.75
2023-03-23T19:01:43.417Z,93689.94
2023-03-23T19:04:14.602Z,93698.84
2023-03-23T19:06:41.413Z,93699.63
2023-03-23T19:09:08.056Z,93701.91
2023-03-23T19:11:34.685Z,93696.47
2023-03-23T19:14:03.399Z,93702.66
2023-03-23T19:16:35.948Z,93700.31
2023-03-23T19:19:05.347Z,93699.53
2023-03-23T19:21:32.597Z,93694.09
2023-03-23T19:24:00.893Z,93707.22
2023-03-23T19:26:36.895Z,93700.31
2023-03-23T19:29:26.150Z,93699.44
2023-03-23T19:31:55.556Z,93700.19
2023-03-23T19:34:23.796Z,93693.31
2023-03-23T19:36:55.237Z,93700.97
2023-03-23T19:39:30.186Z,93704.88
2023-03-23T19:41:56.858Z,93699.84
2023-03-23T19:44:23.545Z,93695.59
2023-03-23T19:46:50.718Z,93703.25
2023-03-23T19:49:17.892Z,93697.44
2023-03-23T19:51:44.963Z,93695.53
2023-03-23T19:54:13.200Z,93697.03
2023-03-23T19:56:40.164Z,93691.63
2023-03-23T19:59:10.579Z,93692.06
2023-03-23T20:01:37.786Z,93679.63
2023-03-23T20:04:05.545Z,93698.59
2023-03-23T20:06:34.047Z,93699.31
2023-03-23T20:09:01.351Z,93702.75
2023-03-23T20:11:29.671Z,93702.75
2023-03-23T20:13:57.699Z,93704.69
2023-03-23T20:16:25.350Z,93702.00
2023-03-23T20:18:53.418Z,93691.09
2023-03-23T20:21:25.401Z,93705.47
2023-03-23T20:23:55.917Z,93702.75
2023-03-23T20:26:28.814Z,93704.63
2023-03-23T20:28:56.049Z,93697.31
2023-03-23T20:31:26.749Z,93702.34
2023-03-23T20:34:02.051Z,93703.06
2023-03-23T20:36:35.167Z,93697.25
2023-03-23T20:39:08.236Z,93706.13
2023-03-23T20:41:38.841Z,93697.97
2023-03-23T20:44:08.032Z,93695.28
2023-03-23T20:46:35.348Z,93689.06
2023-03-23T20:49:02.565Z,93689.84
2023-03-23T20:51:29.208Z,93690.19
2023-03-23T20:53:55.852Z,93685.94
2023-03-23T20:56:22.510Z,93680.56
2023-03-23T20:58:49.242Z,93685.16
2023-03-23T21:01:16.009Z,93685.94
2023-03-23T21:03:44.026Z,93679.31
2023-03-23T21:06:10.855Z,93692.81
2023-03-23T21:08:39.516Z,93683.53
2023-03-23T21:11:09.246Z,93684.22
2023-03-23T21:13:36.838Z,93677.19
2023-03-23T21:16:04.293Z,93674.56
2023-03-23T21:18:31.757Z,93670.63
2023-03-23T21:21:00.285Z,93672.94
2023-03-23T21:23:30.474Z,93672.91
2023-03-23T21:26:02.764Z,93674.34
2023-03-23T21:28:30.765Z,93671.19
2023-03-23T21:31:06.042Z,93669.56
2023-03-23T21:33:33.183Z,93666.09
2023-03-23T21:36:01.002Z,93658.31
2023-03-23T21:38:28.622Z,93651.38
2023-03-23T21:40:58.523Z,93647.09
2023-03-23T21:43:29.794Z,93643.91
2023-03-23T21:45:58.951Z,93640.75
2023-03-23T21:48:27.543Z,93638.81
2023-03-23T21:50:54.884Z,93629.56
2023-03-23T21:53:23.223Z,93634.63
2023-03-23T21:55:54.623Z,93611.75
2023-03-23T21:58:24.213Z,93613.41
2023-03-23T22:00:54.119Z,93617.94
2023-03-23T22:03:23.570Z,93616.50
2023-03-23T22:05:54.190Z,93614.66
2023-03-23T22:08:22.617Z,93617.41
2023-03-23T22:11:01.387Z,93618.13
2023-03-23T22:13:31.169Z,93612.47
2023-03-23T22:15:59.384Z,93604.47
2023-03-23T22:18:26.660Z,93611.38
2023-03-23T22:20:53.822Z,93596.59
2023-03-23T22:23:20.774Z,93605.03
2023-03-23T22:25:47.569Z,93586.41
2023-03-23T22:28:14.716Z,93584.81
2023-03-23T22:30:41.327Z,93588.16
2023-03-23T22:33:08.257Z,93576.41
2023-03-23T22:35:35.040Z,93578.31
2023-03-23T22:38:03.768Z,93579.84
2023-03-23T22:40:32.942Z,93575.59
2023-03-23T22:43:06.718Z,93569.72
2023-03-23T22:45:35.128Z,93571.22
2023-03-23T22:48:08.627Z,93567.31
2023-03-23T22:50:39.350Z,93561.94
2023-03-23T22:53:07.836Z,93555.78
2023-03-23T22:55:36.701Z,93551.25
2023-03-23T22:58:05.089Z,93545.88
2023-03-23T23:01:25.745Z,93548.81
2023-03-23T23:04:29.804Z,93535.41
2023-03-23T23:07:11.999Z,93512.59
2023-03-23T23:09:45.560Z,93520.44
2023-03-23T23:12:15.566Z,93516.00
2023-03-23T23:14:44.347Z,93517.75
2023-03-23T23:17:13.006Z,93513.53
2023-03-23T23:19:41.059Z,93507.38
2023-03-23T23:22:31.987Z,93506.25
2023-03-23T23:25:00.420Z,93500.09
2023-03-23T23:27:45.951Z,93513.94
2023-03-23T23:30:37.967Z,93511.53
2023-03-23T23:33:08.083Z,93515.44
2023-03-23T23:35:37.268Z,93513.16
2023-03-23T23:38:15.994Z,93522.16
2023-03-23T23:40:46.920Z,93517.13
2023-03-23T23:43:17.350Z,93521.94
2023-03-23T23:45:45.833Z,93505.81
2023-03-23T23:48:14.484Z,93510.97
2023-03-23T23:50:43.423Z,93515.66
2023-03-23T23:53:35.527Z,93520.78
2023-03-23T23:56:08.299Z,93514.78
2023-03-23T23:58:36.030Z,93512.44
